createdAt,value
2019-03-25T00:02:37.424Z,69.80
2019-03-25T00:05:48.093Z,69.79
2019-03-25T00:09:05.014Z,70.37
2019-03-25T00:12:08.818Z,70.79
2019-03-25T00:15:18.425Z,71.25
2019-03-25T00:18:27.933Z,71.67
2019-03-25T00:21:37.407Z,71.21
2019-03-25T00:24:46.950Z,71.34
2019-03-25T00:27:56.420Z,70.81
2019-03-25T00:31:06.145Z,71.63
2019-03-25T00:34:15.786Z,71.75
2019-03-25T00:37:25.384Z,73.08
2019-03-25T00:40:34.996Z,74.20
2019-03-25T00:43:44.449Z,75.55
2019-03-25T00:46:53.776Z,76.71
2019-03-25T00:50:03.221Z,78.03
2019-03-25T00:53:12.624Z,78.84
2019-03-25T00:56:22.063Z,79.62
2019-03-25T00:59:41.754Z,79.15
2019-03-25T01:02:51.159Z,78.96
2019-03-25T01:06:00.600Z,79.26
2019-03-25T01:09:20.266Z,79.60
2019-03-25T01:12:29.577Z,79.90
2019-03-25T01:15:39.017Z,80.02
2019-03-25T01:18:58.944Z,80.36
2019-03-25T01:22:08.297Z,80.34
2019-03-25T01:25:17.822Z,80.31
2019-03-25T01:28:37.489Z,79.98
2019-03-25T01:31:46.901Z,80.57
2019-03-25T01:34:56.286Z,81.47
2019-03-25T01:38:16.076Z,82.44
2019-03-25T01:41:25.396Z,83.51
2019-03-25T01:44:34.790Z,82.73
2019-03-25T01:47:54.626Z,83.08
2019-03-25T01:51:04.043Z,82.41
2019-03-25T01:54:13.445Z,82.64
2019-03-25T01:57:33.083Z,82.67
2019-03-25T02:00:42.478Z,83.00
2019-03-25T02:03:51.995Z,83.75
2019-03-25T02:07:12.030Z,84.00
2019-03-25T02:10:21.325Z,84.26
2019-03-25T02:13:30.641Z,83.94
2019-03-25T02:16:50.205Z,84.21
2019-03-25T02:19:59.600Z,84.95
2019-03-25T02:23:09.351Z,84.91
2019-03-25T02:26:19.214Z,85.32
2019-03-25T02:29:28.730Z,85.00
2019-03-25T02:32:38.042Z,84.88
2019-03-25T02:35:47.447Z,84.61
2019-03-25T02:39:08.248Z,84.48
2019-03-25T02:42:17.638Z,84.45
2019-03-25T02:45:27.039Z,84.17
2019-03-25T02:48:36.465Z,83.90
2019-03-25T02:51:56.149Z,83.72
2019-03-25T02:55:05.952Z,83.99
2019-03-25T02:58:15.510Z,84.22
2019-03-25T03:01:24.804Z,84.13
2019-03-25T03:04:34.327Z,84.29
2019-03-25T03:07:43.837Z,84.75
2019-03-25T03:10:53.268Z,85.50
2019-03-25T03:14:03.075Z,85.41
2019-03-25T03:17:12.470Z,85.06
2019-03-25T03:20:32.321Z,85.36
2019-03-25T03:23:41.746Z,85.46
2019-03-25T03:26:51.168Z,84.97
2019-03-25T03:30:11.811Z,83.85
2019-03-25T03:33:21.415Z,83.93
2019-03-25T03:36:30.891Z,84.29
2019-03-25T03:39:40.392Z,83.83
2019-03-25T03:42:50.063Z,84.39
2019-03-25T03:45:59.680Z,85.05
2019-03-25T03:49:09.068Z,84.51
2019-03-25T03:52:18.562Z,85.13
2019-03-25T03:55:40.632Z,85.54
2019-03-25T03:58:50.346Z,84.27
2019-03-25T04:01:59.631Z,84.83
2019-03-25T04:05:09.058Z,84.47
2019-03-25T04:08:28.876Z,84.95
2019-03-25T04:11:38.264Z,84.79
2019-03-25T04:14:47.788Z,84.86
2019-03-25T04:18:07.351Z,84.73
2019-03-25T04:21:16.943Z,84.62
2019-03-25T04:24:26.259Z,85.06
2019-03-25T04:27:45.899Z,84.76
2019-03-25T04:30:55.409Z,84.25
2019-03-25T04:34:04.803Z,84.88
2019-03-25T04:37:24.477Z,84.86
2019-03-25T04:40:33.884Z,84.25
2019-03-25T04:43:43.389Z,84.05
2019-03-25T04:47:03.098Z,84.11
2019-03-25T04:50:12.774Z,84.64
2019-03-25T04:53:22.183Z,83.92
2019-03-25T04:56:39.671Z,84.17
2019-03-25T04:59:42.722Z,84.19
2019-03-25T05:03:02.366Z,84.37
2019-03-25T05:06:11.797Z,84.66
2019-03-25T05:09:21.194Z,84.20
2019-03-25T05:12:40.934Z,83.50
2019-03-25T05:15:50.453Z,83.50
2019-03-25T05:18:59.953Z,84.30
2019-03-25T05:22:11.120Z,84.37
2019-03-25T05:25:20.743Z,84.46
2019-03-25T05:28:40.255Z,84.45
2019-03-25T05:31:49.581Z,84.69
2019-03-25T05:34:58.995Z,84.94
2019-03-25T05:38:18.841Z,85.20
2019-03-25T05:41:28.263Z,84.41
2019-03-25T05:44:37.591Z,84.38
2019-03-25T05:47:57.405Z,83.99
2019-03-25T05:51:06.843Z,83.21
2019-03-25T05:54:16.360Z,83.43
2019-03-25T05:57:35.979Z,84.01
2019-03-25T06:00:45.382Z,84.40
2019-03-25T06:03:54.808Z,85.29
2019-03-25T06:07:14.539Z,86.56
2019-03-25T06:10:23.949Z,86.30
2019-03-25T06:13:33.378Z,87.12
2019-03-25T06:16:53.199Z,85.97
2019-03-25T06:20:02.616Z,86.86
2019-03-25T06:23:11.972Z,87.42
2019-03-25T06:26:31.662Z,87.68
2019-03-25T06:29:41.010Z,87.87
2019-03-25T06:32:50.383Z,87.97
2019-03-25T06:35:59.782Z,87.44
2019-03-25T06:39:09.691Z,85.97
2019-03-25T06:42:29.463Z,86.35
2019-03-25T06:45:38.886Z,86.70
2019-03-25T06:48:48.318Z,86.77
2019-03-25T06:51:57.904Z,87.14
2019-03-25T06:55:08.484Z,86.82
2019-03-25T06:58:19.026Z,86.77
2019-03-25T07:01:28.470Z,86.84
2019-03-25T07:04:38.042Z,86.22
2019-03-25T07:07:47.473Z,85.94
2019-03-25T07:11:07.452Z,85.78
2019-03-25T07:14:17.315Z,85.76
2019-03-25T07:17:36.946Z,84.79
2019-03-25T07:20:46.453Z,82.69
2019-03-25T07:23:55.947Z,81.82
2019-03-25T07:27:05.368Z,82.06
2019-03-25T07:30:15.269Z,79.47
2019-03-25T07:33:24.607Z,78.93
2019-03-25T07:36:34.202Z,78.53
2019-03-25T07:39:54.121Z,78.15
2019-03-25T07:43:03.621Z,78.97
2019-03-25T07:46:13.122Z,79.26
2019-03-25T07:49:22.559Z,80.92
2019-03-25T07:52:31.974Z,82.63
2019-03-25T07:55:51.762Z,81.83
2019-03-25T07:59:01.171Z,82.94
2019-03-25T08:02:10.714Z,83.67
2019-03-25T08:05:20.417Z,83.85
2019-03-25T08:08:30.018Z,83.31
2019-03-25T08:11:39.517Z,84.69
2019-03-25T08:14:49.193Z,85.15
2019-03-25T08:17:59.191Z,85.59
2019-03-25T08:21:19.090Z,86.66
2019-03-25T08:24:28.791Z,86.88
2019-03-25T08:27:38.194Z,87.12
2019-03-25T08:30:47.604Z,87.24
2019-03-25T08:33:56.975Z,87.22
2019-03-25T08:37:06.332Z,87.02
2019-03-25T08:40:16.061Z,86.10
2019-03-25T08:43:25.615Z,85.94
2019-03-25T08:46:35.248Z,86.35
2019-03-25T08:49:44.708Z,85.70
2019-03-25T08:52:54.123Z,85.94
2019-03-25T08:56:03.529Z,86.24
2019-03-25T08:59:23.211Z,86.69
2019-03-25T09:02:32.621Z,86.20
2019-03-25T09:05:42.064Z,86.83
2019-03-25T09:09:02.068Z,86.84
2019-03-25T09:12:11.550Z,87.78
2019-03-25T09:15:21.421Z,88.08
2019-03-25T09:18:30.860Z,88.15
2019-03-25T09:21:40.453Z,87.75
2019-03-25T09:24:50.085Z,86.51
2019-03-25T09:28:01.002Z,85.93
2019-03-25T09:31:15.198Z,84.75
2019-03-25T09:34:24.723Z,84.75
2019-03-25T09:37:44.466Z,85.28
2019-03-25T09:40:54.067Z,85.15
2019-03-25T09:44:03.628Z,84.82
2019-03-25T09:47:13.064Z,83.67
2019-03-25T09:50:22.489Z,82.17
2019-03-25T09:53:42.174Z,82.42
2019-03-25T09:56:51.719Z,84.88
2019-03-25T10:00:01.222Z,82.18
2019-03-25T10:03:11.198Z,78.22
2019-03-25T10:06:20.824Z,73.48
2019-03-25T10:09:30.140Z,72.54
2019-03-25T10:12:39.628Z,69.91
2019-03-25T10:15:49.257Z,71.51
2019-03-25T10:18:58.694Z,71.34
2019-03-25T10:22:18.406Z,66.61
2019-03-25T10:25:27.770Z,64.77
2019-03-25T10:28:47.882Z,60.25
2019-03-25T10:31:58.517Z,60.66
2019-03-25T10:35:08.917Z,59.13
2019-03-25T10:38:19.869Z,59.07
2019-03-25T10:41:33.949Z,60.70
2019-03-25T10:44:55.413Z,55.57
2019-03-25T10:48:04.941Z,54.93
2019-03-25T10:51:14.400Z,54.92
2019-03-25T10:54:34.177Z,53.18
2019-03-25T10:57:43.893Z,55.33
2019-03-25T11:01:03.658Z,53.21
2019-03-25T11:04:13.394Z,51.05
2019-03-25T11:07:22.914Z,46.33
2019-03-25T11:10:32.527Z,44.57
2019-03-25T11:13:41.980Z,43.62
2019-03-25T11:16:51.675Z,43.52
2019-03-25T11:20:01.321Z,45.13
2019-03-25T11:23:10.991Z,50.66
2019-03-25T11:26:19.610Z,55.12
2019-03-25T11:29:29.456Z,57.64
2019-03-25T11:32:39.092Z,60.61
2019-03-25T11:35:48.806Z,63.92
2019-03-25T11:38:58.256Z,64.30
2019-03-25T11:42:18.222Z,67.01
2019-03-25T11:45:27.669Z,70.25
2019-03-25T11:48:37.158Z,73.60
2019-03-25T11:51:56.779Z,72.21
2019-03-25T11:55:06.963Z,74.34
2019-03-25T11:58:26.678Z,75.22
2019-03-25T12:01:36.185Z,75.20
2019-03-25T12:04:45.669Z,70.85
2019-03-25T12:07:55.223Z,64.38
2019-03-25T12:11:04.722Z,53.44
2019-03-25T12:14:14.835Z,51.74
2019-03-25T12:17:24.183Z,45.53
2019-03-25T12:20:33.689Z,41.26
2019-03-25T12:23:43.233Z,38.70
2019-03-25T12:26:52.589Z,40.78
2019-03-25T12:30:02.078Z,40.02
2019-03-25T12:33:22.038Z,37.16
2019-03-25T12:36:31.574Z,38.68
2019-03-25T12:39:51.681Z,40.87
2019-03-25T12:43:01.143Z,37.14
2019-03-25T12:46:10.709Z,37.00
2019-03-25T12:49:20.320Z,38.99
2019-03-25T12:52:29.643Z,43.21
2019-03-25T12:55:49.478Z,49.42
2019-03-25T12:58:58.925Z,54.43
2019-03-25T13:02:08.403Z,59.93
2019-03-25T13:15:49.490Z,66.42
2019-03-25T13:18:58.816Z,68.62
2019-03-25T13:22:09.279Z,69.87
2019-03-25T13:25:18.732Z,69.77
2019-03-25T13:28:38.454Z,68.36
2019-03-25T13:31:50.550Z,64.22
2019-03-25T13:34:59.188Z,61.95
2019-03-25T13:38:08.715Z,57.27
2019-03-25T13:41:18.517Z,55.45
2019-03-25T13:44:27.882Z,55.31
2019-03-25T13:47:37.578Z,55.12
2019-03-25T13:50:47.014Z,56.03
2019-03-25T13:53:56.427Z,53.53
2019-03-25T13:57:16.217Z,57.47
2019-03-25T14:00:38.981Z,59.13
2019-03-25T14:03:58.748Z,59.17
2019-03-25T14:07:08.202Z,60.78
2019-03-25T14:10:19.091Z,60.51
2019-03-25T14:13:48.663Z,59.97
2019-03-25T14:16:50.020Z,59.80
2019-03-25T14:19:59.433Z,62.11
2019-03-25T14:23:20.353Z,61.39
2019-03-25T14:26:41.002Z,60.95
2019-03-25T14:29:50.419Z,59.35
2019-03-25T14:33:01.449Z,59.20
2019-03-25T14:36:10.968Z,58.29
2019-03-25T14:39:30.657Z,57.75
2019-03-25T14:42:40.115Z,57.74
2019-03-25T14:45:49.740Z,58.89
2019-03-25T14:48:59.179Z,57.47
2019-03-25T14:52:08.629Z,57.82
2019-03-25T14:55:29.584Z,57.94
2019-03-25T14:58:39.028Z,58.42
2019-03-25T15:01:51.365Z,62.73
2019-03-25T15:04:59.712Z,64.16
2019-03-25T15:08:09.160Z,63.98
2019-03-25T15:11:18.729Z,64.71
2019-03-25T15:14:28.222Z,64.46
2019-03-25T15:17:37.791Z,64.27
2019-03-25T15:20:57.509Z,62.75
2019-03-25T15:24:06.976Z,62.94
2019-03-25T15:27:16.394Z,63.04
2019-03-25T15:30:36.557Z,61.48
2019-03-25T15:33:46.068Z,60.71
2019-03-25T15:37:05.909Z,60.50
2019-03-25T15:40:17.497Z,60.92
2019-03-25T15:43:37.289Z,56.97
2019-03-25T15:46:55.301Z,56.83
2019-03-25T15:49:58.012Z,53.88
2019-03-25T15:53:07.477Z,54.33
2019-03-25T15:56:16.913Z,54.18
2019-03-25T15:59:36.563Z,53.46
2019-03-25T16:02:45.986Z,53.83
2019-03-25T16:05:55.332Z,53.32
2019-03-25T16:09:15.113Z,54.37
2019-03-25T16:12:24.548Z,54.19
2019-03-25T16:15:45.680Z,53.42
2019-03-25T16:18:55.268Z,54.50
2019-03-25T16:22:04.700Z,55.27
2019-03-25T16:25:27.753Z,56.24
2019-03-25T16:28:47.269Z,56.20
2019-03-25T16:31:55.196Z,55.90
2019-03-25T16:35:04.960Z,56.18
2019-03-25T16:38:14.314Z,55.45
2019-03-25T16:41:23.904Z,55.49
2019-03-25T16:44:33.426Z,56.00
2019-03-25T16:47:42.969Z,55.44
2019-03-25T16:51:02.833Z,56.03
2019-03-25T16:54:12.186Z,56.86
2019-03-25T16:57:21.502Z,57.18
2019-03-25T17:00:41.212Z,56.89
2019-03-25T17:03:51.764Z,57.07
2019-03-25T17:07:01.206Z,57.77
2019-03-25T17:10:10.819Z,58.44
2019-03-25T17:13:20.262Z,58.73
2019-03-25T17:16:29.740Z,58.87
2019-03-25T17:19:49.479Z,59.51
2019-03-25T17:22:58.925Z,60.63
2019-03-25T17:26:08.376Z,60.04
2019-03-25T17:29:28.279Z,59.08
2019-03-25T17:32:37.704Z,60.24
2019-03-25T17:35:47.147Z,60.66
2019-03-25T17:38:56.905Z,60.51
2019-03-25T17:42:06.785Z,60.61
2019-03-25T17:45:17.170Z,60.90
2019-03-25T17:48:26.672Z,61.91
2019-03-25T17:51:36.394Z,61.47
2019-03-25T17:54:45.813Z,60.84
2019-03-25T17:57:55.254Z,61.59
2019-03-25T18:01:32.830Z,62.38
2019-03-25T18:04:42.426Z,62.92
2019-03-25T18:07:51.860Z,62.96
2019-03-25T18:11:11.564Z,63.59
2019-03-25T18:14:20.990Z,64.07
2019-03-25T18:17:30.450Z,63.75
2019-03-25T18:20:41.265Z,64.13
2019-03-25T18:23:51.760Z,63.99
2019-03-25T18:27:01.287Z,64.18
2019-03-25T18:30:11.976Z,64.27
2019-03-25T18:33:31.613Z,64.14
2019-03-25T18:36:41.115Z,65.09
2019-03-25T18:39:50.539Z,65.50
2019-03-25T18:43:10.229Z,66.15
2019-03-25T18:46:19.746Z,66.53
2019-03-25T18:49:29.256Z,66.88
2019-03-25T18:52:38.793Z,67.54
2019-03-25T18:55:48.348Z,67.56
2019-03-25T18:58:57.887Z,67.99
2019-03-25T19:02:07.348Z,68.68
2019-03-25T19:05:27.241Z,69.03
2019-03-25T19:08:38.379Z,69.10
2019-03-25T19:11:49.728Z,68.90
2019-03-25T19:14:59.139Z,69.80
2019-03-25T19:18:08.650Z,69.98
2019-03-25T19:21:18.151Z,70.01
2019-03-25T19:24:27.772Z,70.29
2019-03-25T19:27:37.225Z,70.00
2019-03-25T19:30:45.267Z,70.05
2019-03-25T19:34:04.930Z,70.88
2019-03-25T19:37:14.401Z,71.19
2019-03-25T19:40:23.947Z,71.47
2019-03-25T19:43:33.964Z,71.71
2019-03-25T19:46:55.155Z,71.77
2019-03-25T19:50:15.324Z,72.35
2019-03-25T19:53:24.750Z,73.21
2019-03-25T19:56:34.095Z,74.01
2019-03-25T19:59:43.564Z,73.90
2019-03-25T20:02:53.040Z,73.99
2019-03-25T20:06:12.690Z,74.19
2019-03-25T20:09:22.205Z,74.72
2019-03-25T20:12:31.499Z,74.79
2019-03-25T20:15:51.222Z,75.14
2019-03-25T20:19:00.584Z,75.35
2019-03-25T20:22:10.102Z,75.41
2019-03-25T20:25:29.945Z,75.75
2019-03-25T20:28:40.165Z,75.66
2019-03-25T20:31:50.667Z,75.71
2019-03-25T20:35:00.382Z,76.35
2019-03-25T20:38:20.475Z,76.59
2019-03-25T20:41:30.180Z,77.11
2019-03-25T20:44:39.663Z,77.52
2019-03-25T20:47:49.100Z,77.60
2019-03-25T20:50:58.653Z,77.41
2019-03-25T20:54:08.221Z,77.61
2019-03-25T20:57:17.714Z,77.35
2019-03-25T21:00:52.178Z,77.48
2019-03-25T21:04:01.710Z,77.40
2019-03-25T21:07:21.517Z,77.04
2019-03-25T21:10:31.033Z,77.10
2019-03-25T21:13:40.546Z,77.08
2019-03-25T21:16:50.044Z,77.08
2019-03-25T21:19:59.623Z,76.53
2019-03-25T21:23:19.254Z,76.63
2019-03-25T21:26:28.609Z,76.45
2019-03-25T21:29:37.991Z,76.23
2019-03-25T21:32:58.813Z,76.13
2019-03-25T21:36:18.783Z,75.68
2019-03-25T21:39:28.186Z,75.64
2019-03-25T21:42:37.582Z,75.82
2019-03-25T21:45:57.357Z,75.61
2019-03-25T21:49:06.872Z,75.48
2019-03-25T21:52:16.357Z,75.67
2019-03-25T21:55:25.933Z,76.44
2019-03-25T21:58:35.343Z,76.48
2019-03-25T22:01:55.194Z,76.71
2019-03-25T22:05:05.182Z,76.81
2019-03-25T22:08:24.998Z,77.45
2019-03-25T22:11:34.428Z,77.67
2019-03-25T22:14:43.957Z,78.43
2019-03-25T22:17:53.397Z,79.15
2019-03-25T22:21:02.842Z,79.97
2019-03-25T22:24:22.671Z,79.76
2019-03-25T22:27:32.000Z,79.80
2019-03-25T22:30:41.407Z,80.16
2019-03-25T22:33:50.748Z,80.79
2019-03-25T22:37:00.157Z,81.12
2019-03-25T22:40:10.163Z,81.67
2019-03-25T22:43:19.627Z,82.05
2019-03-25T22:46:29.356Z,82.28
2019-03-25T22:49:38.710Z,82.46
2019-03-25T22:52:48.146Z,82.47
2019-03-25T22:55:57.566Z,82.80
2019-03-25T22:59:06.997Z,82.88
2019-03-25T23:02:27.027Z,83.26
2019-03-25T23:05:36.466Z,83.50
2019-03-25T23:08:45.916Z,83.59
2019-03-25T23:11:56.738Z,83.94
2019-03-25T23:15:06.678Z,83.93
2019-03-25T23:18:26.162Z,84.08
2019-03-25T23:21:37.062Z,84.51
2019-03-25T23:24:46.543Z,84.60
2019-03-25T23:28:06.383Z,84.86
2019-03-25T23:31:15.822Z,84.49
2019-03-25T23:34:25.274Z,84.89
2019-03-25T23:37:34.814Z,85.04
2019-03-25T23:40:44.385Z,85.01
2019-03-25T23:44:04.130Z,84.96
2019-03-25T23:47:15.998Z,84.91
2019-03-25T23:50:25.611Z,84.97
2019-03-25T23:53:34.972Z,84.97
2019-03-25T23:56:54.693Z,84.52
